Time;durP1;ratioP1;P1;durP2;ratioP2;P2;SDS_P1;SDS_P2;PMS_P1;PMS_P2;Temp;Humidity;BMP_temperature;BMP_pressure;BME280_temperature;BME280_humidity;BME280_pressure;Samples;Min_cycle;Max_cycle;Signal;HPM_P1;HPM_P2
2022/08/05 00:01:23;;;;;;;8.05;4.50;;;;;;;19.54;100.00;101282.06;5068888;28;20028;-71
2022/08/05 00:03:51;;;;;;;11.48;4.30;;;;;;;19.52;100.00;101283.41;5071212;28;20491;-73
2022/08/05 00:06:19;;;;;;;10.00;4.93;;;;;;;19.45;100.00;101281.78;5072944;28;20070;-74
2022/08/05 00:08:47;;;;;;;8.63;4.60;;;;;;;19.45;100.00;101284.53;5070496;28;20480;-75
2022/08/05 00:11:17;;;;;;;9.77;4.55;;;;;;;19.42;100.00;101278.78;5089191;28;20501;-73
2022/08/05 00:13:46;;;;;;;8.85;4.97;;;;;;;19.37;100.00;101276.00;5091343;28;20024;-72
2022/08/05 00:16:15;;;;;;;8.88;4.80;;;;;;;19.49;100.00;101295.78;5091056;28;20020;-71
2022/08/05 00:18:47;;;;;;;11.13;4.80;;;;;;;19.42;100.00;101296.06;5074255;28;20143;-73
2022/08/05 00:21:15;;;;;;;;;;;;;;;19.64;100.00;101295.78;5089299;28;20375;-72
2022/08/05 00:23:44;;;;;;;10.30;4.70;;;;;;;19.41;100.00;101285.34;5091351;28;19911;-71
2022/08/05 00:26:12;;;;;;;11.65;5.43;;;;;;;19.36;100.00;101290.84;5091052;28;20093;-71
2022/08/05 00:28:39;;;;;;;10.02;4.65;;;;;;;19.41;100.00;101282.59;5074794;28;20047;-75
2022/08/05 00:31:06;;;;;;;7.82;4.80;;;;;;;19.49;100.00;101287.56;5088140;28;20470;-73
2022/08/05 00:33:34;;;;;;;10.00;4.95;;;;;;;19.38;100.00;101300.44;5091347;28;20028;-74
2022/08/05 00:36:01;;;;;;;12.10;4.90;;;;;;;19.38;100.00;101305.09;5090872;28;20105;-75
2022/08/05 00:38:28;;;;;;;7.68;4.68;;;;;;;19.38;100.00;101308.66;5076130;28;20417;-72
2022/08/05 00:40:58;;;;;;;10.40;4.78;;;;;;;19.38;100.00;101308.66;5086217;28;20483;-75
2022/08/05 00:43:25;;;;;;;10.10;5.22;;;;;;;19.36;100.00;101307.31;5091186;28;20362;-73
2022/08/05 00:45:52;;;;;;;8.73;5.07;;;;;;;19.37;100.00;101297.97;5090803;28;20484;-74
2022/08/05 00:48:22;;;;;;;7.10;4.82;;;;;;;19.45;100.00;101297.44;5078031;28;20456;-72
2022/08/05 00:50:51;;;;;;;11.10;5.35;;;;;;;19.45;100.00;101283.72;5086547;28;20422;-74
2022/08/05 00:53:21;;;;;;;8.85;5.05;;;;;;;19.34;100.00;101282.88;5091077;28;20507;-72
2022/08/05 00:55:52;;;;;;;9.75;4.93;;;;;;;19.40;100.00;101281.78;5090852;28;20044;-75
2022/08/05 00:58:22;;;;;;;11.35;5.65;;;;;;;19.27;100.00;101294.13;5078178;28;20370;-72
2022/08/05 01:00:50;;;;;;;10.60;5.03;;;;;;;19.24;100.00;101299.34;5082661;28;20028;-73
2022/08/05 01:03:17;;;;;;;9.45;4.90;;;;;;;19.18;100.00;101301.25;5090951;28;20413;-70
2022/08/05 01:05:43;;;;;;;11.45;5.43;;;;;;;19.10;100.00;101293.56;5091100;28;20020;-71
2022/08/05 01:08:11;;;;;;;10.02;5.22;;;;;;;19.15;100.00;101300.97;5078963;28;20403;-72
2022/08/05 01:10:52;;;;;;;8.82;4.85;;;;;;;19.16;100.00;101314.41;5082885;28;20016;-72
2022/08/05 01:13:23;;;;;;;;;;;;;;;19.31;100.00;101327.34;5092025;28;20031;-75
2022/08/05 01:15:59;;;;;;;11.23;4.93;;;;;;;19.11;100.00;101334.44;5090932;28;19904;-74
2022/08/05 01:18:30;;;;;;;9.00;4.90;;;;;;;19.08;100.00;101340.47;5077764;28;20675;-74
2022/08/05 01:21:08;;;;;;;10.00;4.90;;;;;;;19.09;100.00;101353.06;5085188;28;20661;-72
2022/08/05 01:23:53;;;;;;;10.13;4.80;;;;;;;19.14;100.00;101368.72;5090799;28;20041;-72
2022/08/05 01:26:34;;;;;;;10.90;4.43;;;;;;;19.25;100.00;101377.81;5092440;28;20020;-70
2022/08/05 01:29:11;;;;;;;10.52;4.78;;;;;;;19.27;100.00;101381.09;5072746;28;20029;-73
2022/08/05 01:31:42;;;;;;;10.30;4.13;;;;;;;19.23;100.00;101369.81;5088628;28;20024;-72
2022/08/05 01:34:12;;;;;;;10.35;4.45;;;;;;;19.18;100.00;101355.28;5093969;28;20016;-70
2022/08/05 01:36:46;;;;;;;13.00;4.10;;;;;;;19.20;100.00;101348.41;5111569;28;20099;-72
2022/08/05 01:39:14;;;;;;;10.10;3.97;;;;;;;19.12;100.00;101346.22;5075497;28;20111;-71
2022/08/05 01:41:41;;;;;;;12.95;4.40;;;;;;;19.15;100.00;101355.84;5075348;28;20094;-70
2022/08/05 01:44:09;;;;;;;13.05;4.88;;;;;;;19.15;100.00;101362.13;5074033;28;20021;-71
2022/08/05 01:46:35;;;;;;;13.27;4.85;;;;;;;19.13;100.00;101359.66;5078296;28;20467;-71
2022/08/05 01:49:03;;;;;;;16.30;4.70;;;;;;;19.11;100.00;101361.03;5075778;28;20056;-73
2022/08/05 01:51:32;;;;;;;9.23;4.40;;;;;;;19.23;100.00;101352.56;5073830;28;20028;-72
2022/08/05 01:53:59;;;;;;;10.20;4.22;;;;;;;19.25;100.00;101355.88;5073900;28;20151;-73
2022/08/05 01:56:32;;;;;;;12.15;4.90;;;;;;;19.26;100.00;101358.34;5076757;28;20117;-73
2022/08/05 01:58:59;;;;;;;10.70;4.47;;;;;;;19.30;100.00;101340.22;5091928;28;20032;-72
2022/08/05 02:01:25;;;;;;;8.80;3.80;;;;;;;19.29;100.00;101329.50;5093218;28;20051;-73
2022/08/05 02:03:52;;;;;;;11.32;4.43;;;;;;;19.28;100.00;101312.22;5092846;28;20024;-74
2022/08/05 02:06:18;;;;;;;12.65;4.50;;;;;;;19.23;100.00;101290.25;5094948;28;20024;-72
2022/08/05 02:08:44;;;;;;;9.90;4.25;;;;;;;19.27;100.00;101271.34;5094112;28;20360;-72
2022/08/05 02:11:12;;;;;;;10.38;3.92;;;;;;;19.27;100.00;101294.13;5095113;28;20452;-73
2022/08/05 02:13:50;;;;;;;12.07;4.00;;;;;;;19.21;100.00;101286.97;5092547;28;20473;-75
2022/08/05 02:16:27;;;;;;;10.68;4.28;;;;;;;19.23;100.00;101312.22;5095073;28;20031;-74
2022/08/05 02:19:06;;;;;;;14.38;4.45;;;;;;;19.15;100.00;101331.97;5094795;28;20092;-72
2022/08/05 02:21:42;;;;;;;12.50;4.50;;;;;;;19.18;100.00;101301.25;5095078;28;20024;-69
2022/08/05 02:24:12;;;;;;;9.20;4.20;;;;;;;19.16;100.00;101292.47;5090312;28;20062;-70
2022/08/05 02:30:01;;;;;;;13.48;4.82;;;;;;;19.03;100.00;101328.66;5094879;28;20050;-72
2022/08/05 02:32:30;;;;;;;15.13;4.60;;;;;;;18.99;100.00;101336.56;5088409;28;20089;-73
2022/08/05 02:35:05;;;;;;;11.82;4.47;;;;;;;19.07;100.00;101338.00;5073073;28;20039;-73
2022/08/05 02:37:32;;;;;;;14.50;4.55;;;;;;;19.04;100.00;101335.78;5073211;28;20119;-72
2022/08/05 02:40:00;;;;;;;12.95;4.47;;;;;;;19.02;100.00;101344.28;5074512;28;20028;-73
2022/08/05 02:42:27;;;;;;;11.25;4.63;;;;;;;19.13;100.00;101359.66;5071991;28;20478;-73
2022/08/05 02:44:53;;;;;;;12.00;4.45;;;;;;;19.08;100.00;101347.84;5093059;28;20475;-73
2022/08/05 02:47:20;;;;;;;10.02;4.60;;;;;;;19.03;100.00;101331.38;5094418;28;20039;-71
2022/08/05 02:49:47;;;;;;;10.82;4.43;;;;;;;19.06;100.00;101325.38;5094381;28;20028;-74
2022/08/05 02:52:18;;;;;;;10.55;4.18;;;;;;;19.01;100.00;101328.06;5090409;28;20036;-72
2022/08/05 02:54:45;;;;;;;12.63;4.75;;;;;;;18.97;100.00;101316.84;5073998;28;20107;-73
2022/08/05 02:57:15;;;;;;;10.82;4.85;;;;;;;18.88;100.00;101313.78;5072702;28;20082;-74
2022/08/05 02:59:43;;;;;;;11.85;4.88;;;;;;;18.90;100.00;101316.25;5073856;28;20115;-73
2022/08/05 03:02:12;;;;;;;12.65;4.70;;;;;;;18.90;100.00;101311.63;5084537;28;20102;-73
2022/08/05 03:04:38;;;;;;;11.52;4.28;;;;;;;18.92;100.00;101312.16;5072763;28;20033;-72
2022/08/05 03:07:05;;;;;;;11.55;4.95;;;;;;;18.88;100.00;101308.28;5073842;28;20027;-73
2022/08/05 03:09:31;;;;;;;12.75;4.38;;;;;;;18.84;100.00;101301.69;5073727;28;20028;-73
2022/08/05 03:11:56;;;;;;;11.60;4.68;;;;;;;18.87;100.00;101305.81;5086543;28;20042;-73
2022/08/05 03:14:21;;;;;;;11.57;4.60;;;;;;;18.85;100.00;101317.06;5077583;28;20024;-72
2022/08/05 03:16:47;;;;;;;13.27;4.75;;;;;;;18.86;100.00;101323.41;5093901;28;20016;-73
2022/08/05 03:19:12;;;;;;;11.38;4.60;;;;;;;18.82;100.00;101331.28;5093827;28;20431;-72
2022/08/05 03:21:37;;;;;;;9.80;4.55;;;;;;;18.77;100.00;101344.97;5091847;28;20036;-73
2022/08/05 03:24:03;;;;;;;15.40;5.78;;;;;;;18.72;100.00;101342.19;5075332;28;20107;-72
2022/08/05 03:26:29;;;;;;;11.85;4.45;;;;;;;18.78;100.00;101341.13;5072252;28;20116;-72
2022/08/05 03:28:55;;;;;;;13.38;4.82;;;;;;;18.73;100.00;101343.88;5072315;28;20119;-74
2022/08/05 03:31:20;;;;;;;13.25;4.88;;;;;;;18.78;100.00;101347.47;5081386;28;20364;-74
2022/08/05 03:33:46;;;;;;;14.25;5.25;;;;;;;18.72;100.00;101347.69;5076849;28;20035;-71
2022/08/05 03:36:12;;;;;;;12.10;5.00;;;;;;;18.70;100.00;101358.91;5073239;28;20530;-70
2022/08/05 03:38:43;;;;;;;12.75;4.80;;;;;;;18.69;100.00;101356.44;5073358;28;20325;-70
2022/08/05 03:41:09;;;;;;;10.10;4.20;;;;;;;18.71;100.00;101348.81;5080722;28;20035;-73
2022/08/05 03:43:35;;;;;;;13.38;5.28;;;;;;;18.76;100.00;101348.81;5079832;28;20028;-70
2022/08/05 03:46:00;;;;;;;10.40;4.45;;;;;;;18.78;100.00;101338.38;5073312;28;20230;-74
2022/08/05 03:48:29;;;;;;;14.05;4.88;;;;;;;18.72;100.00;101343.03;5072939;28;20023;-72
2022/08/05 03:51:20;;;;;;;12.80;4.35;;;;;;;18.81;100.00;101337.88;5078338;28;20024;-70
2022/08/05 03:54:01;;;;;;;12.00;4.55;;;;;;;18.78;100.00;101332.91;5077311;28;20101;-71
2022/08/05 03:56:43;;;;;;;13.27;4.90;;;;;;;18.76;100.00;101329.63;5071957;28;20460;-69
2022/08/05 03:59:12;;;;;;;;;;;;;;;18.91;100.00;101328.88;5073271;28;20025;-70
2022/08/05 04:01:41;;;;;;;16.77;4.68;;;;;;;18.86;100.00;101331.63;5081472;28;20018;-71
2022/08/05 04:04:09;;;;;;;14.05;4.53;;;;;;;18.87;100.00;101323.13;5075036;28;20048;-70
2022/08/05 04:06:34;;;;;;;10.88;4.65;;;;;;;18.82;100.00;101325.78;5071637;28;20112;-70
2022/08/05 04:09:01;;;;;;;13.95;5.47;;;;;;;18.74;100.00;101323.59;5073009;28;20107;-73
2022/08/05 04:11:26;;;;;;;12.48;4.88;;;;;;;18.70;100.00;101317.78;5081179;28;20103;-69
2022/08/05 04:13:53;;;;;;;14.50;5.00;;;;;;;18.72;100.00;101309.31;5076983;28;20143;-71
2022/08/05 04:16:19;;;;;;;8.60;4.72;;;;;;;18.67;100.00;101318.34;5072599;28;20024;-70
2022/08/05 04:18:45;;;;;;;12.52;4.93;;;;;;;18.66;100.00;101316.72;5072468;28;20056;-72
2022/08/05 04:21:11;;;;;;;12.45;5.13;;;;;;;18.62;100.00;101325.75;5079123;28;20027;-71
2022/08/05 04:23:37;;;;;;;9.07;4.90;;;;;;;18.64;100.00;101327.09;5078549;28;20028;-72
2022/08/05 04:26:03;;;;;;;10.93;4.72;;;;;;;18.56;100.00;101320.22;5072718;28;20024;-71
2022/08/05 04:28:28;;;;;;;11.85;4.93;;;;;;;18.57;100.00;101313.66;5072734;28;20020;-71
2022/08/05 04:30:54;;;;;;;11.68;5.43;;;;;;;18.57;100.00;101308.16;5075848;28;20095;-72
2022/08/05 04:33:19;;;;;;;7.88;4.53;;;;;;;18.51;100.00;101322.09;5090538;28;20035;-70
2022/08/05 04:35:44;;;;;;;14.93;5.07;;;;;;;18.50;100.00;101324.03;5090708;28;20027;-71
2022/08/05 04:38:10;;;;;;;10.38;5.35;;;;;;;18.51;100.00;101328.44;5092708;28;20023;-71
2022/08/05 04:40:37;;;;;;;14.95;5.20;;;;;;;18.45;100.00;101334.97;5091786;28;20028;-73
2022/08/05 04:43:03;;;;;;;13.82;5.30;;;;;;;18.45;100.00;101348.69;5090575;28;20020;-73
2022/08/05 04:45:28;;;;;;;9.23;5.13;;;;;;;18.42;100.00;101349.22;5091251;28;20031;-71
2022/08/05 04:48:01;;;;;;;10.77;5.38;;;;;;;18.41;100.00;101344.81;5079599;28;20036;-70
2022/08/05 04:50:26;;;;;;;10.38;4.75;;;;;;;18.44;100.00;101336.06;5071721;28;20028;-69
2022/08/05 04:52:51;;;;;;;16.35;5.40;;;;;;;18.41;100.00;101340.16;5070940;28;20039;-72
2022/08/05 04:55:17;;;;;;;13.07;5.38;;;;;;;18.42;100.00;101339.06;5072212;28;20035;-71
2022/08/05 04:57:44;;;;;;;11.05;4.78;;;;;;;18.42;100.00;101338.25;5071132;28;20107;-72
2022/08/05 05:00:10;;;;;;;9.95;5.05;;;;;;;18.35;100.00;101332.19;5072069;28;20021;-68
2022/08/05 05:02:35;;;;;;;9.85;5.00;;;;;;;18.36;100.00;101339.31;5083628;28;20024;-71
2022/08/05 05:05:00;;;;;;;11.65;5.20;;;;;;;18.39;100.00;101342.34;5072351;28;20038;-71
2022/08/05 05:07:26;;;;;;;10.88;5.07;;;;;;;18.40;100.00;101345.88;5071282;28;20031;-70
2022/08/05 05:09:51;;;;;;;15.18;4.95;;;;;;;18.42;100.00;101347.28;5076555;28;20368;-71
2022/08/05 05:12:16;;;;;;;10.38;4.75;;;;;;;18.42;100.00;101346.47;5089101;28;20071;-72
2022/08/05 05:14:42;;;;;;;11.07;5.20;;;;;;;18.40;100.00;101345.88;5096417;28;20028;-71
2022/08/05 05:17:07;;;;;;;10.60;4.63;;;;;;;18.42;100.00;101346.47;5096412;28;20414;-69
2022/08/05 05:19:32;;;;;;;12.93;4.63;;;;;;;18.45;100.00;101345.94;5090192;28;20059;-71
2022/08/05 05:21:57;;;;;;;9.93;4.35;;;;;;;18.46;100.00;101347.56;5094248;28;20027;-70
2022/08/05 05:24:23;;;;;;;9.80;4.45;;;;;;;18.51;100.00;101346.75;5073756;28;20036;-72
2022/08/05 05:26:48;;;;;;;12.23;5.13;;;;;;;18.55;100.00;101354.19;5082753;28;20362;-72
2022/08/05 05:29:13;;;;;;;11.02;4.60;;;;;;;18.49;100.00;101349.78;5094549;28;20026;-68
2022/08/05 05:31:38;;;;;;;10.15;4.80;;;;;;;18.51;100.00;101354.97;5095819;28;20016;-73
2022/08/05 05:34:04;;;;;;;10.32;4.57;;;;;;;18.47;100.00;101360.19;5093774;28;20112;-70
2022/08/05 05:36:30;;;;;;;8.70;4.47;;;;;;;18.42;100.00;101360.16;5095607;28;20020;-73
2022/08/05 05:38:56;;;;;;;8.90;4.88;;;;;;;18.40;100.00;101367.81;5094724;28;20061;-70
2022/08/05 05:41:21;;;;;;;11.27;4.60;;;;;;;18.41;100.00;101373.03;5094663;28;20115;-72
2022/08/05 05:43:47;;;;;;;13.73;4.78;;;;;;;18.40;100.00;101378.78;5093139;28;20434;-72
2022/08/05 05:46:12;;;;;;;13.15;4.80;;;;;;;18.37;100.00;101384.78;5095647;28;20054;-68
2022/08/05 05:48:40;;;;;;;11.40;4.78;;;;;;;18.38;100.00;101375.47;5095726;28;20374;-68
2022/08/05 05:51:05;;;;;;;10.60;4.50;;;;;;;18.34;100.00;101386.16;5094484;28;20467;-72
2022/08/05 05:53:31;;;;;;;11.25;4.28;;;;;;;18.31;100.00;101394.06;5080292;28;20029;-70
2022/08/05 05:55:56;;;;;;;12.43;4.68;;;;;;;18.30;100.00;101387.75;5077365;28;20496;-71
2022/08/05 05:58:22;;;;;;;10.40;4.70;;;;;;;18.27;100.00;101399.25;5089886;28;20109;-69
2022/08/05 06:00:47;;;;;;;13.30;4.30;;;;;;;18.27;100.00;101404.72;5077247;28;20281;-72
2022/08/05 06:03:12;;;;;;;12.45;4.38;;;;;;;18.28;100.00;101402.81;5074523;28;20016;-71
2022/08/05 06:05:37;;;;;;;10.43;4.32;;;;;;;18.28;100.00;101389.09;5073579;28;20031;-70
2022/08/05 06:08:03;;;;;;;9.60;4.03;;;;;;;18.26;100.00;101400.34;5074837;28;20113;-72
2022/08/05 06:10:28;;;;;;;9.00;4.00;;;;;;;18.28;100.00;101392.66;5086631;28;20027;-72
2022/08/05 06:12:53;;;;;;;11.90;4.22;;;;;;;18.30;100.00;101387.75;5093361;28;20056;-72
2022/08/05 06:15:18;;;;;;;10.63;3.50;;;;;;;18.30;100.00;101401.47;5093971;28;20031;-71
2022/08/05 06:17:44;;;;;;;10.57;3.80;;;;;;;18.32;100.00;101393.78;5094731;28;20487;-73
2022/08/05 06:20:09;;;;;;;9.85;3.47;;;;;;;18.26;100.00;101400.34;5091927;28;20024;-73
2022/08/05 06:22:35;;;;;;;9.32;3.10;;;;;;;18.22;100.00;101390.97;5091334;28;20028;-71
2022/08/05 06:25:02;;;;;;;7.10;3.45;;;;;;;18.19;100.00;101389.63;5085212;28;20107;-71
2022/08/05 06:27:27;;;;;;;9.73;3.20;;;;;;;18.27;100.00;101399.25;5077833;28;20024;-70
2022/08/05 06:29:52;;;;;;;10.27;3.38;;;;;;;18.26;100.00;101397.59;5095027;28;20557;-72
2022/08/05 06:32:18;;;;;;;8.13;3.45;;;;;;;18.20;100.00;101402.19;5077601;28;20117;-72
2022/08/05 06:34:43;;;;;;;14.05;4.05;;;;;;;18.24;100.00;101408.81;5074729;28;20028;-70
2022/08/05 06:37:08;;;;;;;8.15;3.72;;;;;;;18.27;100.00;101407.47;5074623;28;20129;-73
2022/08/05 06:39:34;;;;;;;7.93;3.55;;;;;;;18.31;100.00;101407.75;5094521;28;20020;-71
2022/08/05 06:42:01;;;;;;;13.48;3.80;;;;;;;18.38;100.00;101413.84;5093574;28;20028;-74
2022/08/05 06:44:27;;;;;;;14.82;3.83;;;;;;;18.39;100.00;101415.50;5094535;28;20028;-72
2022/08/05 06:46:52;;;;;;;10.23;3.80;;;;;;;18.41;100.00;101419.59;5094399;28;20123;-72
2022/08/05 06:49:17;;;;;;;11.73;3.78;;;;;;;18.44;100.00;101426.47;5073972;28;20071;-69
2022/08/05 06:51:43;;;;;;;8.95;3.63;;;;;;;18.47;100.00;101431.44;5073724;28;20030;-73
2022/08/05 06:54:08;;;;;;;13.13;3.97;;;;;;;18.52;100.00;101436.94;5074078;28;20025;-70
2022/08/05 06:56:33;;;;;;;10.63;3.72;;;;;;;18.49;100.00;101442.94;5072556;28;20017;-73
2022/08/05 06:58:58;;;;;;;9.73;3.90;;;;;;;18.45;100.00;101441.84;5088990;28;20455;-73
2022/08/05 07:01:24;;;;;;;12.40;3.45;;;;;;;18.57;100.00;101447.94;5081859;28;20036;-73
2022/08/05 07:03:49;;;;;;;10.85;3.90;;;;;;;18.58;100.00;101451.50;5073996;28;20032;-74
2022/08/05 07:06:15;;;;;;;11.38;4.13;;;;;;;18.55;100.00;101452.84;5073908;28;20097;-68
2022/08/05 07:08:41;;;;;;;10.00;3.95;;;;;;;18.62;100.00;101451.81;5085977;28;20031;-66
2022/08/05 07:11:07;;;;;;;7.40;3.30;;;;;;;18.64;100.00;101452.38;5087437;28;20107;-70
2022/08/05 07:19:01;;;;;;;10.15;3.80;;;;;;;18.71;100.00;101452.97;5092915;28;20110;-70
2022/08/05 07:21:27;;;;;;;10.15;3.60;;;;;;;18.76;100.00;101467.50;5085398;28;20460;-68
2022/08/05 07:23:52;;;;;;;10.77;3.63;;;;;;;18.80;100.00;101470.56;5073731;28;20085;-70
2022/08/05 07:26:17;;;;;;;9.48;3.53;;;;;;;18.76;100.00;101464.78;5085024;28;20028;-68
2022/08/05 07:28:42;;;;;;;9.02;3.38;;;;;;;18.88;100.00;101466.53;5093932;28;20062;-69
2022/08/05 07:31:08;;;;;;;7.68;3.35;;;;;;;19.02;100.00;101475.09;5088191;28;20028;-69
2022/08/05 07:33:34;;;;;;;10.45;3.40;;;;;;;19.03;100.00;101479.50;5073295;28;20432;-73
2022/08/05 07:36:08;;;;;;;10.82;3.85;;;;;;;19.09;100.00;101478.44;5082097;28;20442;-80
2022/08/05 07:38:36;;;;;;;8.75;2.92;;;;;;;19.13;100.00;101480.38;5084085;28;20085;-71
2022/08/05 07:41:03;;;;;;;8.27;2.90;;;;;;;19.22;100.00;101482.59;5072072;28;20024;-75
2022/08/05 07:43:28;;;;;;;6.70;2.75;;;;;;;19.31;100.00;101491.97;5073121;28;20103;-69
2022/08/05 07:45:54;;;;;;;7.80;2.90;;;;;;;19.26;100.00;101484.56;5081112;28;20161;-72
2022/08/05 07:48:19;;;;;;;7.40;3.00;;;;;;;19.27;96.59;101488.13;5091799;28;20070;-70
2022/08/05 07:50:44;;;;;;;7.40;2.53;;;;;;;19.24;98.30;101494.94;5091235;28;20061;-71
2022/08/05 07:53:10;;;;;;;10.10;3.15;;;;;;;19.19;100.00;101492.19;5092289;28;20447;-71
2022/08/05 07:55:35;;;;;;;6.53;2.63;;;;;;;19.26;99.01;101492.78;5083344;28;20035;-71
2022/08/05 07:58:00;;;;;;;8.93;2.58;;;;;;;19.27;96.19;101502.66;5081593;28;20036;-75
2022/08/05 08:00:26;;;;;;;10.27;2.85;;;;;;;19.32;99.28;101504.59;5091911;28;20031;-78
2022/08/05 08:02:51;;;;;;;7.13;2.50;;;;;;;19.28;90.70;101504.31;5080494;28;20054;-73
2022/08/05 08:05:16;;;;;;;6.85;2.65;;;;;;;19.21;87.23;101502.91;5088449;28;20024;-74
2022/08/05 08:07:44;;;;;;;6.35;2.60;;;;;;;19.21;89.30;101505.66;5091758;28;20564;-75
2022/08/05 08:10:09;;;;;;;9.50;2.58;;;;;;;19.19;86.67;101511.41;5091874;28;20024;-76
2022/08/05 08:12:35;;;;;;;6.20;2.30;;;;;;;19.25;85.63;101515.81;5092943;28;20020;-75
2022/08/05 08:15:01;;;;;;;5.25;2.45;;;;;;;19.36;83.82;101515.88;5077577;28;20024;-75
2022/08/05 08:17:26;;;;;;;10.25;2.00;;;;;;;19.51;81.65;101517.84;5075463;28;20032;-70
2022/08/05 08:19:51;;;;;;;7.07;2.20;;;;;;;19.55;79.65;101528.03;5092943;28;20401;-72
2022/08/05 08:22:17;;;;;;;10.15;2.40;;;;;;;19.69;80.33;101525.59;5091982;28;20036;-75
2022/08/05 08:24:42;;;;;;;6.57;2.35;;;;;;;19.68;79.63;101529.44;5074562;28;20028;-72
2022/08/05 08:27:10;;;;;;;5.97;2.25;;;;;;;19.70;78.59;101532.75;5071232;28;20387;-73
2022/08/05 08:29:35;;;;;;;5.80;2.40;;;;;;;19.71;77.38;101539.06;5072328;28;20107;-72
2022/08/05 08:32:03;;;;;;;7.85;2.25;;;;;;;19.72;79.52;101536.03;5081947;28;20056;-73
2022/08/05 08:34:31;;;;;;;6.03;2.30;;;;;;;19.83;79.78;101539.66;5086087;28;20514;-73
2022/08/05 08:36:57;;;;;;;8.65;2.17;;;;;;;19.90;82.15;101536.66;5091228;28;20020;-72
2022/08/05 08:39:23;;;;;;;4.72;2.10;;;;;;;19.91;79.55;101538.31;5091730;28;20420;-71
2022/08/05 08:41:49;;;;;;;6.00;2.00;;;;;;;20.00;80.99;101534.78;5090900;28;20035;-71
2022/08/05 08:44:17;;;;;;;6.13;1.90;;;;;;;20.03;76.91;101551.78;5091511;28;20028;-72
2022/08/05 08:46:44;;;;;;;5.57;2.05;;;;;;;19.96;77.70;101552.06;5091225;28;20024;-71
2022/08/05 08:49:12;;;;;;;7.95;1.85;;;;;;;19.96;77.00;101558.38;5091049;28;20448;-70
2022/08/05 08:51:40;;;;;;;5.20;1.88;;;;;;;19.97;77.97;101553.69;5090032;28;20024;-70
2022/08/05 08:54:05;;;;;;;7.60;2.17;;;;;;;20.03;77.52;101562.78;5092624;28;20024;-67
2022/08/05 08:56:31;;;;;;;4.20;2.25;;;;;;;20.06;76.69;101573.22;5092445;28;20020;-68
2022/08/05 08:58:58;;;;;;;7.65;2.28;;;;;;;20.13;78.68;101579.28;5075499;28;20024;-67
2022/08/05 09:01:23;;;;;;;5.50;2.00;;;;;;;20.11;77.38;101570.47;5085297;28;20060;-70
2022/08/05 09:03:52;;;;;;;5.93;2.33;;;;;;;20.10;77.91;101580.66;5072485;28;20589;-70
2022/08/05 09:06:17;;;;;;;7.03;2.13;;;;;;;20.10;75.51;101580.66;5072312;28;20033;-74
2022/08/05 09:08:42;;;;;;;3.83;2.22;;;;;;;20.21;78.96;101583.44;5084832;28;20075;-71
2022/08/05 09:11:08;;;;;;;9.48;2.55;;;;;;;20.28;78.36;101579.31;5074039;28;20034;-71
2022/08/05 09:13:35;;;;;;;6.00;1.80;;;;;;;20.39;77.88;101588.41;5071792;28;20020;-71
2022/08/05 09:16:01;;;;;;;5.82;1.80;;;;;;;20.40;75.15;101589.25;5072241;28;20032;-71
2022/08/05 09:18:27;;;;;;;7.45;1.95;;;;;;;20.38;73.87;101591.41;5082448;28;20048;-74
2022/08/05 09:20:52;;;;;;;5.60;1.98;;;;;;;20.39;75.52;101582.91;5090781;28;20411;-73
2022/08/05 09:23:19;;;;;;;5.93;1.90;;;;;;;20.31;74.78;101600.75;5091443;28;20107;-71
2022/08/05 09:25:49;;;;;;;5.55;1.98;;;;;;;20.17;75.56;101594.97;5092216;28;20024;-71
2022/08/05 09:28:14;;;;;;;6.28;2.08;;;;;;;;;;5091330;28;20099;-70
2022/08/05 09:30:54;;;;;;;3.20;1.57;;;;;;;20.04;73.73;101609.22;5092123;28;20086;-71
2022/08/05 09:33:20;;;;;;;6.95;1.80;;;;;;;19.95;74.59;101603.41;5092383;28;20132;-70
2022/08/05 09:35:55;;;;;;;5.40;1.95;;;;;;;19.94;76.91;101599.03;5091094;28;20125;-74
2022/08/05 09:38:20;;;;;;;7.20;1.95;;;;;;;19.96;74.07;101610.56;5081747;28;20513;-74
2022/08/05 09:40:46;;;;;;;6.55;2.13;;;;;;;20.09;75.87;101611.16;5087561;28;20026;-76
2022/08/05 09:43:34;;;;;;;4.57;1.65;;;;;;;20.26;74.82;101617.25;5092199;28;20480;-73
2022/08/05 09:46:00;;;;;;;4.82;1.95;;;;;;;20.30;73.15;101610.09;5092229;28;20024;-73
2022/08/05 09:48:30;;;;;;;3.70;1.90;;;;;;;20.42;73.36;101609.03;5088741;28;20478;-73
2022/08/05 09:50:59;;;;;;;4.55;1.23;;;;;;;20.52;68.37;101622.78;5081697;28;20028;-73
2022/08/05 09:53:25;;;;;;;4.90;1.65;;;;;;;20.68;67.35;101610.72;5070588;28;20333;-73
2022/08/05 09:55:52;;;;;;;5.07;1.50;;;;;;;20.87;69.71;101621.16;5073890;28;20036;-74
2022/08/05 09:58:17;;;;;;;3.67;1.23;;;;;;;20.89;68.46;101621.72;5093329;28;20027;-74
2022/08/05 10:00:59;;;;;;;3.92;1.20;;;;;;;20.90;66.08;101620.63;5093009;28;20757;-74
2022/08/05 10:03:25;;;;;;;2.92;1.23;;;;;;;20.96;62.73;101618.69;5093876;28;20036;-75
2022/08/05 10:06:17;;;;;;;4.03;1.10;;;;;;;21.02;63.17;101628.59;5093986;28;20085;-76
2022/08/05 10:08:42;;;;;;;2.63;1.05;;;;;;;20.86;61.96;101619.50;5083226;28;20420;-74
2022/08/05 10:11:16;;;;;;;2.17;0.90;;;;;;;20.96;62.88;101626.94;5073806;28;20050;-75
2022/08/05 10:13:42;;;;;;;3.65;1.00;;;;;;;21.26;60.13;101631.59;5075665;28;20051;-74
2022/08/05 10:16:31;;;;;;;3.45;1.00;;;;;;;21.25;59.89;101635.44;5089763;28;20467;-71
2022/08/05 10:18:58;;;;;;;4.38;1.00;;;;;;;21.35;57.10;101632.66;5082233;28;20068;-74
2022/08/05 10:21:23;;;;;;;2.60;0.82;;;;;;;21.27;57.26;101635.16;5077885;28;20360;-76
2022/08/05 10:23:49;;;;;;;5.35;1.23;;;;;;;21.38;57.98;101636.78;5093294;28;20039;-74
2022/08/05 10:26:14;;;;;;;4.88;1.15;;;;;;;21.31;56.74;101639.81;5091582;28;20032;-74
2022/08/05 10:29:06;;;;;;;1.98;0.90;;;;;;;21.32;58.00;101638.72;5094488;28;20029;-75
2022/08/05 10:31:32;;;;;;;4.65;1.15;;;;;;;21.30;55.10;101649.16;5088606;28;20040;-73
2022/08/05 10:33:58;;;;;;;3.60;1.10;;;;;;;21.30;56.71;101651.09;5094505;28;20467;-75
2022/08/05 10:36:23;;;;;;;5.47;1.00;;;;;;;21.29;53.48;101650.28;5094300;28;20042;-75
2022/08/05 10:38:54;;;;;;;5.78;1.80;;;;;;;21.37;55.75;101635.94;5092557;28;20035;-74
2022/08/05 10:41:29;;;;;;;5.22;1.70;;;;;;;21.35;54.89;101640.91;5094101;28;20028;-75
2022/08/05 10:44:11;;;;;;;6.90;1.30;;;;;;;21.38;54.59;101643.13;5093094;28;20367;-75
2022/08/05 10:46:45;;;;;;;5.07;0.88;;;;;;;21.33;55.10;101653.31;5076253;28;20043;-75
2022/08/05 10:49:13;;;;;;;3.90;0.95;;;;;;;21.31;53.69;101650.03;5076384;28;20102;-74
2022/08/05 10:51:43;;;;;;;2.90;0.70;;;;;;;21.29;52.91;101655.81;5093365;28;20043;-75
2022/08/05 10:54:10;;;;;;;2.20;0.88;;;;;;;21.32;52.77;101655.25;5093148;28;20048;-74
2022/08/05 10:56:43;;;;;;;1.58;0.80;;;;;;;21.37;53.45;101657.16;5094287;28;20035;-75
2022/08/05 10:59:08;;;;;;;4.15;1.10;;;;;;;21.37;52.54;101665.41;5093428;28;20032;-74
2022/08/05 11:01:43;;;;;;;15.23;2.70;;;;;;;21.41;52.42;101669.28;5088212;28;20039;-75
2022/08/05 11:04:11;;;;;;;3.13;0.90;;;;;;;21.54;52.57;101668.72;5094432;28;20020;-75
2022/08/05 11:07:05;;;;;;;3.85;0.60;;;;;;;21.68;52.33;101674.47;5093345;28;20448;-75
2022/08/05 11:10:00;;;;;;;6.07;0.80;;;;;;;21.76;51.51;101676.63;5091302;28;20035;-75
2022/08/05 11:12:40;;;;;;;1.33;0.60;;;;;;;21.70;46.73;101679.69;5091574;28;20486;-75
2022/08/05 11:15:16;;;;;;;5.68;1.10;;;;;;;21.76;46.96;101678.56;5091459;28;20119;-73
2022/08/05 11:17:43;;;;;;;4.57;1.15;;;;;;;21.80;45.83;101676.91;5092399;28;20028;-74
2022/08/05 11:20:36;;;;;;;1.40;0.55;;;;;;;21.90;48.76;101687.06;5091560;28;20122;-75
2022/08/05 11:23:26;;;;;;;2.10;0.90;;;;;;;22.02;47.78;101684.81;5092715;28;20058;-75
2022/08/05 11:26:05;;;;;;;3.58;0.63;;;;;;;22.05;47.62;101683.41;5092418;28;20024;-74
2022/08/05 11:28:33;;;;;;;1.85;0.70;;;;;;;22.10;47.61;101687.00;5090716;28;20036;-74
2022/08/05 11:31:02;;;;;;;4.25;1.15;;;;;;;21.98;47.06;101682.91;5092538;28;20085;-75